アルハンゲリスク の空港の天気 - METARとTAF

Arhangel'Sk ( ULAA / ARH ) - ロシア アルハンゲリスク
飛行場実況気象(Metar)
観測時間11/27 10:30 MSK (11/27 07:30 UTC)
風向・風速不定 1m/s
視程10km以上
天気現象
少しの雲 雲底高度 610m
気温-17℃
湿度84%
気圧1041hPa
METARULAA 270730Z VRB01MPS 9999 FEW020 M17/M19 Q1041 R08/950345 NOSIG RMK QFE780/1040
過去の天気等 Google飛行場航空写真 Wunderground天気予報

過去48時間のMETAR

飛行場予報(TAF)
発表時間: 11/27 08:00 MSK (11/27 05:00 UTC)
予報対象時間: 27日9時 MSK ~ 28日9時 MSK
風向・風速南南東 3m/s 瞬間風速 8m/s
視程10km以上
全天の8割程度の雲 雲底高度 490m
27日9時 MSK ~ 27日15時 MSK に一時的に
視程300m
天気現象弱い雪 氷霧
全天の8割程度の雲 雲底高度 60m
TAF ULAA 270500Z 2706/2806 15003G08MPS 9999 BKN016
TEMPO 2706/2712 0300 -SN FZFG BKN002